52.0°F
Current conditions from King Hill
Updated every 5 minutes
 
  Thursday October 2, 2014

Station Historical Data
Daily Summary for May 13, 2012 Units:  Both    English   Metric
« Previous Day
Next Day »
Daily Weekly Monthly Yearly Custom
  High: Low: Average:
Temperature: 64.6 °F /  18.1 °C 50.0 °F /  10 °C 58.7 °F /  14.8 °C
Dew Point: 55.9 °F /  13.3 °C 40.7 °F /  4.8 °C 50.1 °F /  10.1 °C
Humidity: 91% 42% 74%
Wind Speed: 4.0mph /  6.4km/h - 1.3mph /  2.1km/h
Wind Gust: 12.0mph /  19.3km/h - -
Wind- - SSE
Pressure: 30.10 in /  1019.2 hPa 30.03 in /  1016.8 hPa -
Precipitation: 0.00 in /  0 mm    
Historical Graphs
 
 
Tabular Data for May 13, 2012
Time Temperature Dew Point Pressure Wind Wind Speed Wind Gust Humidity Daily Rainfall
00:00 64.6 °F /  18.1 °C 42.8 °F /  6 °C 30.05in /  1017.5hPa Calm   6.0mph /  9.7km/h 45% 0.00in /  0mm
00:05 64.3 °F /  17.9 °C 40.7 °F /  4.8 °C 30.05in /  1017.5hPa Calm   1.0mph /  1.6km/h 42% 0.00in /  0mm
00:10 63.9 °F /  17.7 °C 41.6 °F /  5.3 °C 30.04in /  1017.2hPa Calm     44% 0.00in /  0mm
00:15 63.4 °F /  17.4 °C 41.7 °F /  5.4 °C 30.04in /  1017.2hPa Calm   1.0mph /  1.6km/h 45% 0.00in /  0mm
00:20 63.3 °F /  17.4 °C 41.0 °F /  5 °C 30.04in /  1017.2hPa SW 2.0mph /  3.2km/h 8.0mph /  12.9km/h 44% 0.00in /  0mm
00:25 63.3 °F /  17.4 °C 42.2 °F /  5.7 °C 30.04in /  1017.2hPa SW 1.0mph /  1.6km/h 8.0mph /  12.9km/h 46% 0.00in /  0mm
00:30 63.1 °F /  17.3 °C 43.1 °F /  6.2 °C 30.04in /  1017.2hPa Calm   4.0mph /  6.4km/h 48% 0.00in /  0mm
00:35 62.6 °F /  17 °C 43.2 °F /  6.2 °C 30.04in /  1017.2hPa Calm   1.0mph /  1.6km/h 49% 0.00in /  0mm
00:40 62.5 °F /  16.9 °C 42.6 °F /  5.9 °C 30.04in /  1017.2hPa Calm   5.0mph /  8km/h 48% 0.00in /  0mm
00:45 62.4 °F /  16.9 °C 42.5 °F /  5.8 °C 30.05in /  1017.5hPa WSW 2.0mph /  3.2km/h 5.0mph /  8km/h 48% 0.00in /  0mm
00:50 62.4 °F /  16.9 °C 43.5 °F /  6.4 °C 30.05in /  1017.5hPa Calm   5.0mph /  8km/h 50% 0.00in /  0mm
00:55 62.9 °F /  17.2 °C 41.8 °F /  5.4 °C 30.05in /  1017.5hPa WSW 4.0mph /  6.4km/h 12.0mph /  19.3km/h 46% 0.00in /  0mm
01:00 63.6 °F /  17.6 °C 43.0 °F /  6.1 °C 30.04in /  1017.2hPa WSW 2.0mph /  3.2km/h 12.0mph /  19.3km/h 47% 0.00in /  0mm
01:05 63.9 °F /  17.7 °C 42.7 °F /  5.9 °C 30.05in /  1017.5hPa WSW 2.0mph /  3.2km/h 11.0mph /  17.7km/h 46% 0.00in /  0mm
01:10 64.3 °F /  17.9 °C 43.1 °F /  6.2 °C 30.04in /  1017.2hPa WSW 2.0mph /  3.2km/h 9.0mph /  14.5km/h 46% 0.00in /  0mm
01:15 64.3 °F /  17.9 °C 43.1 °F /  6.2 °C 30.04in /  1017.2hPa WSW 2.0mph /  3.2km/h 9.0mph /  14.5km/h 46% 0.00in /  0mm
01:20 64.4 °F /  18 °C 42.6 °F /  5.9 °C 30.04in /  1017.2hPa Calm   7.0mph /  11.3km/h 45% 0.00in /  0mm
01:25 64.3 °F /  17.9 °C 43.1 °F /  6.2 °C 30.04in /  1017.2hPa WSW 1.0mph /  1.6km/h 7.0mph /  11.3km/h 46% 0.00in /  0mm
01:35 63.9 °F /  17.7 °C 42.7 °F /  5.9 °C 30.04in /  1017.2hPa Calm   6.0mph /  9.7km/h 46% 0.00in /  0mm
01:40 63.6 °F /  17.6 °C 42.5 °F /  5.8 °C 30.04in /  1017.2hPa Calm   6.0mph /  9.7km/h 46% 0.00in /  0mm
01:45 63.5 °F /  17.5 °C 42.9 °F /  6.1 °C 30.04in /  1017.2hPa SW 1.0mph /  1.6km/h 5.0mph /  8km/h 47% 0.00in /  0mm
01:55 63.3 °F /  17.4 °C 42.7 °F /  5.9 °C 30.04in /  1017.2hPa Calm   9.0mph /  14.5km/h 47% 0.00in /  0mm
02:00 63.4 °F /  17.4 °C 42.8 °F /  6 °C 30.04in /  1017.2hPa West 3.0mph /  4.8km/h 8.0mph /  12.9km/h 47% 0.00in /  0mm
02:05 63.5 °F /  17.5 °C 42.9 °F /  6.1 °C 30.03in /  1016.8hPa West 1.0mph /  1.6km/h 8.0mph /  12.9km/h 47% 0.00in /  0mm
02:10 63.4 °F /  17.4 °C 42.8 °F /  6 °C 30.03in /  1016.8hPa Calm   7.0mph /  11.3km/h 47% 0.00in /  0mm
02:15 63.3 °F /  17.4 °C 43.3 °F /  6.3 °C 30.04in /  1017.2hPa West 1.0mph /  1.6km/h 5.0mph /  8km/h 48% 0.00in /  0mm
02:20 63.1 °F /  17.3 °C 43.1 °F /  6.2 °C 30.04in /  1017.2hPa Calm   5.0mph /  8km/h 48% 0.00in /  0mm
02:25 63.1 °F /  17.3 °C 42.6 °F /  5.9 °C 30.03in /  1016.8hPa WSW 1.0mph /  1.6km/h 7.0mph /  11.3km/h 47% 0.00in /  0mm
02:30 63.2 °F /  17.3 °C 43.2 °F /  6.2 °C 30.03in /  1016.8hPa Calm   7.0mph /  11.3km/h 48% 0.00in /  0mm
02:35 63.1 °F /  17.3 °C 43.1 °F /  6.2 °C 30.04in /  1017.2hPa Calm   6.0mph /  9.7km/h 48% 0.00in /  0mm
02:40 63.0 °F /  17.2 °C 44.1 °F /  6.7 °C 30.04in /  1017.2hPa Calm   5.0mph /  8km/h 50% 0.00in /  0mm
02:45 62.7 °F /  17.1 °C 43.8 °F /  6.6 °C 30.04in /  1017.2hPa Calm   1.0mph /  1.6km/h 50% 0.00in /  0mm
02:50 62.5 °F /  16.9 °C 43.6 °F /  6.4 °C 30.03in /  1016.8hPa Calm   1.0mph /  1.6km/h 50% 0.00in /  0mm
02:55 62.4 °F /  16.9 °C 43.5 °F /  6.4 °C 30.03in /  1016.8hPa Calm   2.0mph /  3.2km/h 50% 0.00in /  0mm
03:00 62.3 °F /  16.8 °C 43.4 °F /  6.3 °C 30.03in /  1016.8hPa Calm   2.0mph /  3.2km/h 50% 0.00in /  0mm
03:05 62.1 °F /  16.7 °C 43.3 °F /  6.3 °C 30.03in /  1016.8hPa Calm   2.0mph /  3.2km/h 50% 0.00in /  0mm
03:10 61.9 °F /  16.6 °C 44.6 °F /  7 °C 30.03in /  1016.8hPa Calm     53% 0.00in /  0mm
03:15 61.5 °F /  16.4 °C 44.2 °F /  6.8 °C 30.03in /  1016.8hPa Calm     53% 0.00in /  0mm
03:20 61.2 °F /  16.2 °C 45.4 °F /  7.4 °C 30.03in /  1016.8hPa Calm   1.0mph /  1.6km/h 56% 0.00in /  0mm
03:25 60.6 °F /  15.9 °C 46.2 °F /  7.9 °C 30.03in /  1016.8hPa Calm   2.0mph /  3.2km/h 59% 0.00in /  0mm
03:30 60.0 °F /  15.6 °C 46.5 °F /  8.1 °C 30.03in /  1016.8hPa Calm   2.0mph /  3.2km/h 61% 0.00in /  0mm
03:35 59.4 °F /  15.2 °C 46.4 °F /  8 °C 30.03in /  1016.8hPa Calm   2.0mph /  3.2km/h 62% 0.00in /  0mm
03:40 59.0 °F /  15 °C 48.1 °F /  8.9 °C 30.03in /  1016.8hPa SW 1.0mph /  1.6km/h 3.0mph /  4.8km/h 67% 0.00in /  0mm
03:45 58.1 °F /  14.5 °C 48.4 °F /  9.1 °C 30.04in /  1017.2hPa SW 1.0mph /  1.6km/h 4.0mph /  6.4km/h 70% 0.00in /  0mm
03:50 57.6 °F /  14.2 °C 48.6 °F /  9.2 °C 30.04in /  1017.2hPa Calm   4.0mph /  6.4km/h 72% 0.00in /  0mm
03:55 57.2 °F /  14 °C 48.3 °F /  9.1 °C 30.04in /  1017.2hPa SW 3.0mph /  4.8km/h 4.0mph /  6.4km/h 72% 0.00in /  0mm
04:00 57.1 °F /  13.9 °C 47.4 °F /  8.6 °C 30.04in /  1017.2hPa Calm   4.0mph /  6.4km/h 70% 0.00in /  0mm
04:05 57.1 °F /  13.9 °C 47.0 °F /  8.3 °C 30.04in /  1017.2hPa SW 1.0mph /  1.6km/h 4.0mph /  6.4km/h 69% 0.00in /  0mm
04:10 57.1 °F /  13.9 °C 47.4 °F /  8.6 °C 30.04in /  1017.2hPa Calm   4.0mph /  6.4km/h 70% 0.00in /  0mm
04:15 57.1 °F /  13.9 °C 47.8 °F /  8.8 °C 30.04in /  1017.2hPa SW 1.0mph /  1.6km/h 4.0mph /  6.4km/h 71% 0.00in /  0mm
04:20 56.9 °F /  13.8 °C 47.2 °F /  8.4 °C 30.04in /  1017.2hPa Calm   4.0mph /  6.4km/h 70% 0.00in /  0mm
04:25 57.0 °F /  13.9 °C 46.9 °F /  8.3 °C 30.04in /  1017.2hPa Calm   3.0mph /  4.8km/h 69% 0.00in /  0mm
04:30 57.1 °F /  13.9 °C 47.8 °F /  8.8 °C 30.04in /  1017.2hPa Calm   3.0mph /  4.8km/h 71% 0.00in /  0mm
04:35 57.1 °F /  13.9 °C 48.5 °F /  9.2 °C 30.04in /  1017.2hPa Calm     73% 0.00in /  0mm
04:40 56.8 °F /  13.8 °C 48.2 °F /  9 °C 30.04in /  1017.2hPa Calm     73% 0.00in /  0mm
04:45 56.5 °F /  13.6 °C 48.0 °F /  8.9 °C 30.04in /  1017.2hPa Calm     73% 0.00in /  0mm
04:50 56.4 °F /  13.6 °C 49.3 °F /  9.6 °C 30.04in /  1017.2hPa Calm     77% 0.00in /  0mm
04:55 56.0 °F /  13.3 °C 49.2 °F /  9.6 °C 30.04in /  1017.2hPa Calm     78% 0.00in /  0mm
05:00 55.7 °F /  13.2 °C 49.0 °F /  9.4 °C 30.04in /  1017.2hPa Calm     78% 0.00in /  0mm
05:05 55.7 °F /  13.2 °C 49.0 °F /  9.4 °C 30.04in /  1017.2hPa Calm     78% 0.00in /  0mm
05:10 55.8 °F /  13.2 °C 49.7 °F /  9.8 °C 30.04in /  1017.2hPa Calm     80% 0.00in /  0mm
05:15 55.6 °F /  13.1 °C 49.9 °F /  9.9 °C 30.04in /  1017.2hPa Calm     81% 0.00in /  0mm
05:20 55.3 °F /  12.9 °C 49.9 °F /  9.9 °C 30.04in /  1017.2hPa Calm     82% 0.00in /  0mm
05:25 55.1 °F /  12.8 °C 49.7 °F /  9.8 °C 30.05in /  1017.5hPa Calm     82% 0.00in /  0mm
05:30 55.0 °F /  12.8 °C 49.6 °F /  9.8 °C 30.05in /  1017.5hPa Calm     82% 0.00in /  0mm
05:35 54.9 °F /  12.7 °C 49.8 °F /  9.9 °C 30.05in /  1017.5hPa Calm     83% 0.00in /  0mm
05:40 54.7 °F /  12.6 °C 49.3 °F /  9.6 °C 30.05in /  1017.5hPa Calm     82% 0.00in /  0mm
05:45 54.8 °F /  12.7 °C 49.7 °F /  9.8 °C 30.06in /  1017.8hPa Calm     83% 0.00in /  0mm
05:50 54.7 °F /  12.6 °C 50.0 °F /  10 °C 30.06in /  1017.8hPa Calm     84% 0.00in /  0mm
05:55 54.7 °F /  12.6 °C 50.3 °F /  10.2 °C 30.06in /  1017.8hPa Calm     85% 0.00in /  0mm
06:00 54.8 °F /  12.7 °C 50.4 °F /  10.2 °C 30.06in /  1017.8hPa Calm     85% 0.00in /  0mm
06:05 54.9 °F /  12.7 °C 50.8 °F /  10.4 °C 30.06in /  1017.8hPa Calm     86% 0.00in /  0mm
06:10 55.0 °F /  12.8 °C 50.9 °F /  10.5 °C 30.06in /  1017.8hPa Calm     86% 0.00in /  0mm
06:15 54.9 °F /  12.7 °C 50.8 °F /  10.4 °C 30.07in /  1018.2hPa Calm     86% 0.00in /  0mm
06:20 55.0 °F /  12.8 °C 50.6 °F /  10.3 °C 30.07in /  1018.2hPa Calm     85% 0.00in /  0mm
06:25 55.0 °F /  12.8 °C 50.9 °F /  10.5 °C 30.07in /  1018.2hPa Calm     86% 0.00in /  0mm
06:30 55.1 °F /  12.8 °C 51.0 °F /  10.6 °C 30.07in /  1018.2hPa Calm     86% 0.00in /  0mm
06:40 55.1 °F /  12.8 °C 51.0 °F /  10.6 °C 30.07in /  1018.2hPa Calm     86% 0.00in /  0mm
06:45 55.0 °F /  12.8 °C 50.6 °F /  10.3 °C 30.07in /  1018.2hPa Calm     85% 0.00in /  0mm
06:50 55.1 °F /  12.8 °C 50.0 °F /  10 °C 30.07in /  1018.2hPa Calm     83% 0.00in /  0mm
06:55 55.5 °F /  13.1 °C 50.4 °F /  10.2 °C 30.08in /  1018.5hPa Calm     83% 0.00in /  0mm
07:00 55.9 °F /  13.3 °C 50.8 °F /  10.4 °C 30.08in /  1018.5hPa Calm     83% 0.00in /  0mm
07:05 56.2 °F /  13.4 °C 51.4 °F /  10.8 °C 30.08in /  1018.5hPa Calm     84% 0.00in /  0mm
07:10 56.4 °F /  13.6 °C 52.0 °F /  11.1 °C 30.08in /  1018.5hPa Calm     85% 0.00in /  0mm
07:15 56.4 °F /  13.6 °C 51.3 °F /  10.7 °C 30.09in /  1018.8hPa SSW 1.0mph /  1.6km/h 4.0mph /  6.4km/h 83% 0.00in /  0mm
07:20 56.6 °F /  13.7 °C 51.5 °F /  10.8 °C 30.09in /  1018.8hPa Calm   4.0mph /  6.4km/h 83% 0.00in /  0mm
07:25 56.8 °F /  13.8 °C 51.4 °F /  10.8 °C 30.09in /  1018.8hPa Calm   1.0mph /  1.6km/h 82% 0.00in /  0mm
07:30 56.9 °F /  13.8 °C 51.1 °F /  10.6 °C 30.09in /  1018.8hPa Calm   2.0mph /  3.2km/h 81% 0.00in /  0mm
07:35 57.3 °F /  14.1 °C 51.2 °F /  10.7 °C 30.09in /  1018.8hPa SW 1.0mph /  1.6km/h 3.0mph /  4.8km/h 80% 0.00in /  0mm
07:40 57.8 °F /  14.3 °C 51.7 °F /  10.9 °C 30.09in /  1018.8hPa NW 1.0mph /  1.6km/h 6.0mph /  9.7km/h 80% 0.00in /  0mm
07:50 58.6 °F /  14.8 °C 52.1 °F /  11.2 °C 30.09in /  1018.8hPa Calm   6.0mph /  9.7km/h 79% 0.00in /  0mm
07:55 59.0 °F /  15 °C 52.5 °F /  11.4 °C 30.09in /  1018.8hPa Calm   5.0mph /  8km/h 79% 0.00in /  0mm
08:00 59.0 °F /  15 °C 52.2 °F /  11.2 °C 30.09in /  1018.8hPa Calm   7.0mph /  11.3km/h 78% 0.00in /  0mm
08:05 59.0 °F /  15 °C 52.2 °F /  11.2 °C 30.09in /  1018.8hPa Calm   7.0mph /  11.3km/h 78% 0.00in /  0mm
08:10 59.0 °F /  15 °C 52.2 °F /  11.2 °C 30.09in /  1018.8hPa Calm   4.0mph /  6.4km/h 78% 0.00in /  0mm
08:15 59.0 °F /  15 °C 52.5 °F /  11.4 °C 30.09in /  1018.8hPa Calm   4.0mph /  6.4km/h 79% 0.00in /  0mm
08:20 59.0 °F /  15 °C 52.5 °F /  11.4 °C 30.09in /  1018.8hPa Calm   2.0mph /  3.2km/h 79% 0.00in /  0mm
08:25 59.0 °F /  15 °C 52.8 °F /  11.6 °C 30.09in /  1018.8hPa Calm   2.0mph /  3.2km/h 80% 0.00in /  0mm
08:30 59.0 °F /  15 °C 52.8 °F /  11.6 °C 30.09in /  1018.8hPa Calm   5.0mph /  8km/h 80% 0.00in /  0mm
08:35 59.0 °F /  15 °C 52.8 °F /  11.6 °C 30.09in /  1018.8hPa Calm   5.0mph /  8km/h 80% 0.00in /  0mm
08:45 59.0 °F /  15 °C 52.5 °F /  11.4 °C 30.09in /  1018.8hPa Calm   5.0mph /  8km/h 79% 0.00in /  0mm
08:50 59.5 °F /  15.3 °C 53.3 °F /  11.8 °C 30.09in /  1018.8hPa Calm   4.0mph /  6.4km/h 80% 0.00in /  0mm
08:55 59.8 °F /  15.4 °C 53.3 °F /  11.8 °C 30.10in /  1019.2hPa Calm   2.0mph /  3.2km/h 79% 0.00in /  0mm
09:00 59.6 °F /  15.3 °C 52.4 °F /  11.3 °C 30.09in /  1018.8hPa North 1.0mph /  1.6km/h 4.0mph /  6.4km/h 77% 0.00in /  0mm
09:05 59.3 °F /  15.2 °C 52.1 °F /  11.2 °C 30.10in /  1019.2hPa Calm   4.0mph /  6.4km/h 77% 0.00in /  0mm
09:10 59.3 °F /  15.2 °C 52.8 °F /  11.6 °C 30.10in /  1019.2hPa Calm   2.0mph /  3.2km/h 79% 0.00in /  0mm
09:15 59.6 °F /  15.3 °C 52.7 °F /  11.5 °C 30.09in /  1018.8hPa Calm   2.0mph /  3.2km/h 78% 0.00in /  0mm
09:20 59.4 °F /  15.2 °C 52.2 °F /  11.2 °C 30.09in /  1018.8hPa Calm   1.0mph /  1.6km/h 77% 0.00in /  0mm
09:25 59.7 °F /  15.4 °C 52.8 °F /  11.6 °C 30.09in /  1018.8hPa Calm   1.0mph /  1.6km/h 78% 0.00in /  0mm
09:30 60.1 °F /  15.6 °C 53.2 °F /  11.8 °C 30.09in /  1018.8hPa Calm   1.0mph /  1.6km/h 78% 0.00in /  0mm
09:35 60.3 °F /  15.7 °C 53.1 °F /  11.7 °C 30.09in /  1018.8hPa Calm   1.0mph /  1.6km/h 77% 0.00in /  0mm
09:40 60.5 °F /  15.8 °C 53.6 °F /  12 °C 30.09in /  1018.8hPa Calm   1.0mph /  1.6km/h 78% 0.00in /  0mm
09:45 60.8 °F /  16 °C 53.6 °F /  12 °C 30.09in /  1018.8hPa Calm   1.0mph /  1.6km/h 77% 0.00in /  0mm
09:50 61.1 °F /  16.2 °C 53.5 °F /  11.9 °C 30.09in /  1018.8hPa Calm   3.0mph /  4.8km/h 76% 0.00in /  0mm
09:55 61.4 °F /  16.3 °C 53.8 °F /  12.1 °C 30.09in /  1018.8hPa Calm   4.0mph /  6.4km/h 76% 0.00in /  0mm
10:00 61.3 °F /  16.3 °C 53.7 °F /  12.1 °C 30.09in /  1018.8hPa Calm   4.0mph /  6.4km/h 76% 0.00in /  0mm
10:05 61.2 °F /  16.2 °C 54.3 °F /  12.4 °C 30.09in /  1018.8hPa Calm     78% 0.00in /  0mm
10:10 61.1 °F /  16.2 °C 53.5 °F /  11.9 °C 30.09in /  1018.8hPa North 1.0mph /  1.6km/h 5.0mph /  8km/h 76% 0.00in /  0mm
10:15 61.1 °F /  16.2 °C 53.8 °F /  12.1 °C 30.09in /  1018.8hPa Calm   5.0mph /  8km/h 77% 0.00in /  0mm
10:20 61.0 °F /  16.1 °C 53.4 °F /  11.9 °C 30.10in /  1019.2hPa Calm   4.0mph /  6.4km/h 76% 0.00in /  0mm
10:25 60.8 °F /  16 °C 53.2 °F /  11.8 °C 30.10in /  1019.2hPa Calm   3.0mph /  4.8km/h 76% 0.00in /  0mm
10:30 60.7 °F /  15.9 °C 53.1 °F /  11.7 °C 30.10in /  1019.2hPa North 1.0mph /  1.6km/h 3.0mph /  4.8km/h 76% 0.00in /  0mm
10:35 60.6 °F /  15.9 °C 53.0 °F /  11.7 °C 30.10in /  1019.2hPa Calm   3.0mph /  4.8km/h 76% 0.00in /  0mm
10:45 60.6 °F /  15.9 °C 53.7 °F /  12.1 °C 30.10in /  1019.2hPa Calm   6.0mph /  9.7km/h 78% 0.00in /  0mm
10:50 60.7 °F /  15.9 °C 53.8 °F /  12.1 °C 30.10in /  1019.2hPa Calm   6.0mph /  9.7km/h 78% 0.00in /  0mm
10:55 60.8 °F /  16 °C 53.9 °F /  12.2 °C 30.10in /  1019.2hPa Calm   3.0mph /  4.8km/h 78% 0.00in /  0mm
11:05 60.5 °F /  15.8 °C 53.3 °F /  11.8 °C 30.10in /  1019.2hPa North 1.0mph /  1.6km/h 5.0mph /  8km/h 77% 0.00in /  0mm
11:10 60.2 °F /  15.7 °C 53.0 °F /  11.7 °C 30.10in /  1019.2hPa Calm   5.0mph /  8km/h 77% 0.00in /  0mm
11:15 59.8 °F /  15.4 °C 52.9 °F /  11.6 °C 30.09in /  1018.8hPa North 1.0mph /  1.6km/h 4.0mph /  6.4km/h 78% 0.00in /  0mm
11:20 59.6 °F /  15.3 °C 52.4 °F /  11.3 °C 30.10in /  1019.2hPa North 1.0mph /  1.6km/h 5.0mph /  8km/h 77% 0.00in /  0mm
11:25 59.4 °F /  15.2 °C 52.9 °F /  11.6 °C 30.10in /  1019.2hPa Calm   5.0mph /  8km/h 79% 0.00in /  0mm
11:35 59.5 °F /  15.3 °C 53.0 °F /  11.7 °C 30.10in /  1019.2hPa Calm   5.0mph /  8km/h 79% 0.00in /  0mm
11:40 60.0 °F /  15.6 °C 53.8 °F /  12.1 °C 30.10in /  1019.2hPa Calm   5.0mph /  8km/h 80% 0.00in /  0mm
11:45 60.5 °F /  15.8 °C 54.0 °F /  12.2 °C 30.09in /  1018.8hPa Calm   3.0mph /  4.8km/h 79% 0.00in /  0mm
11:50 61.0 °F /  16.1 °C 53.7 °F /  12.1 °C 30.09in /  1018.8hPa North 1.0mph /  1.6km/h 5.0mph /  8km/h 77% 0.00in /  0mm
12:00 61.3 °F /  16.3 °C 53.7 °F /  12.1 °C 30.09in /  1018.8hPa Calm   7.0mph /  11.3km/h 76% 0.00in /  0mm
12:10 61.8 °F /  16.6 °C 54.5 °F /  12.5 °C 30.09in /  1018.8hPa Calm     77% 0.00in /  0mm
12:14 62.2 °F /  16.8 °C 54.9 °F /  12.7 °C 30.09in /  1018.8hPa Calm   1.0mph /  1.6km/h 77% 0.00in /  0mm
12:20 62.4 °F /  16.9 °C 54.7 °F /  12.6 °C 30.09in /  1018.8hPa NNE 1.0mph /  1.6km/h 5.0mph /  8km/h 76% 0.00in /  0mm
12:25 62.4 °F /  16.9 °C 54.7 °F /  12.6 °C 30.09in /  1018.8hPa Calm   5.0mph /  8km/h 76% 0.00in /  0mm
12:30 62.8 °F /  17.1 °C 55.1 °F /  12.8 °C 30.09in /  1018.8hPa Calm   4.0mph /  6.4km/h 76% 0.00in /  0mm
12:35 63.2 °F /  17.3 °C 55.2 °F /  12.9 °C 30.09in /  1018.8hPa NE 2.0mph /  3.2km/h 5.0mph /  8km/h 75% 0.00in /  0mm
12:40 63.6 °F /  17.6 °C 55.9 °F /  13.3 °C 30.09in /  1018.8hPa NNW 1.0mph /  1.6km/h 6.0mph /  9.7km/h 76% 0.00in /  0mm
12:45 63.6 °F /  17.6 °C 55.2 °F /  12.9 °C 30.09in /  1018.8hPa Calm   6.0mph /  9.7km/h 74% 0.00in /  0mm
12:50 63.0 °F /  17.2 °C 54.6 °F /  12.6 °C 30.09in /  1018.8hPa NNE 1.0mph /  1.6km/h 6.0mph /  9.7km/h 74% 0.00in /  0mm
13:00 62.1 °F /  16.7 °C 54.1 °F /  12.3 °C 30.09in /  1018.8hPa NE 1.0mph /  1.6km/h 8.0mph /  12.9km/h 75% 0.00in /  0mm
13:05 61.9 °F /  16.6 °C 54.3 °F /  12.4 °C 30.09in /  1018.8hPa NE 1.0mph /  1.6km/h 6.0mph /  9.7km/h 76% 0.00in /  0mm
13:10 61.8 °F /  16.6 °C 54.5 °F /  12.5 °C 30.09in /  1018.8hPa NNE 1.0mph /  1.6km/h 8.0mph /  12.9km/h 77% 0.00in /  0mm
13:15 61.8 °F /  16.6 °C 54.2 °F /  12.3 °C 30.09in /  1018.8hPa Calm   8.0mph /  12.9km/h 76% 0.00in /  0mm
13:20 61.4 °F /  16.3 °C 54.1 °F /  12.3 °C 30.09in /  1018.8hPa NNE 1.0mph /  1.6km/h 6.0mph /  9.7km/h 77% 0.00in /  0mm
13:25 61.6 °F /  16.4 °C 54.3 °F /  12.4 °C 30.09in /  1018.8hPa Calm   6.0mph /  9.7km/h 77% 0.00in /  0mm
13:30 62.0 °F /  16.7 °C 54.7 °F /  12.6 °C 30.09in /  1018.8hPa Calm   6.0mph /  9.7km/h 77% 0.00in /  0mm
13:35 62.6 °F /  17 °C 55.3 °F /  12.9 °C 30.09in /  1018.8hPa NNE 1.0mph /  1.6km/h 6.0mph /  9.7km/h 77% 0.00in /  0mm
13:40 62.9 °F /  17.2 °C 54.9 °F /  12.7 °C 30.09in /  1018.8hPa NNW 1.0mph /  1.6km/h 6.0mph /  9.7km/h 75% 0.00in /  0mm
13:45 62.9 °F /  17.2 °C 55.2 °F /  12.9 °C 30.09in /  1018.8hPa Calm   6.0mph /  9.7km/h 76% 0.00in /  0mm
13:50 62.5 °F /  16.9 °C 54.8 °F /  12.7 °C 30.09in /  1018.8hPa North 1.0mph /  1.6km/h 5.0mph /  8km/h 76% 0.00in /  0mm
13:55 62.1 °F /  16.7 °C 54.1 °F /  12.3 °C 30.09in /  1018.8hPa Calm   5.0mph /  8km/h 75% 0.00in /  0mm
14:00 61.8 °F /  16.6 °C 53.8 °F /  12.1 °C 30.09in /  1018.8hPa Calm   3.0mph /  4.8km/h 75% 0.00in /  0mm
14:05 61.4 °F /  16.3 °C 53.8 °F /  12.1 °C 30.09in /  1018.8hPa Calm   3.0mph /  4.8km/h 76% 0.00in /  0mm
14:10 61.1 °F /  16.2 °C 53.8 °F /  12.1 °C 30.09in /  1018.8hPa NE 1.0mph /  1.6km/h 5.0mph /  8km/h 77% 0.00in /  0mm
14:15 60.8 °F /  16 °C 53.9 °F /  12.2 °C 30.09in /  1018.8hPa Calm   5.0mph /  8km/h 78% 0.00in /  0mm
14:20 60.5 °F /  15.8 °C 53.6 °F /  12 °C 30.09in /  1018.8hPa Calm   5.0mph /  8km/h 78% 0.00in /  0mm
14:25 60.6 °F /  15.9 °C 53.7 °F /  12.1 °C 30.09in /  1018.8hPa Calm   3.0mph /  4.8km/h 78% 0.00in /  0mm
14:30 60.4 °F /  15.8 °C 53.5 °F /  11.9 °C 30.09in /  1018.8hPa Calm   6.0mph /  9.7km/h 78% 0.00in /  0mm
14:35 60.4 °F /  15.8 °C 53.9 °F /  12.2 °C 30.09in /  1018.8hPa Calm   6.0mph /  9.7km/h 79% 0.00in /  0mm
14:40 60.4 °F /  15.8 °C 53.5 °F /  11.9 °C 30.09in /  1018.8hPa Calm   4.0mph /  6.4km/h 78% 0.00in /  0mm
14:45 60.4 °F /  15.8 °C 53.9 °F /  12.2 °C 30.09in /  1018.8hPa Calm   4.0mph /  6.4km/h 79% 0.00in /  0mm
14:55 60.3 °F /  15.7 °C 53.8 °F /  12.1 °C 30.09in /  1018.8hPa Calm   4.0mph /  6.4km/h 79% 0.00in /  0mm
15:00 60.3 °F /  15.7 °C 53.8 °F /  12.1 °C 30.08in /  1018.5hPa Calm   3.0mph /  4.8km/h 79% 0.00in /  0mm
15:04 60.4 °F /  15.8 °C 53.9 °F /  12.2 °C 30.09in /  1018.8hPa Calm   3.0mph /  4.8km/h 79% 0.00in /  0mm
15:10 60.6 °F /  15.9 °C 53.7 °F /  12.1 °C 30.08in /  1018.5hPa Calm   4.0mph /  6.4km/h 78% 0.00in /  0mm
15:15 60.6 °F /  15.9 °C 53.7 °F /  12.1 °C 30.08in /  1018.5hPa Calm   4.0mph /  6.4km/h 78% 0.00in /  0mm
15:20 60.7 °F /  15.9 °C 53.5 °F /  11.9 °C 30.08in /  1018.5hPa Calm   5.0mph /  8km/h 77% 0.00in /  0mm
15:25 60.6 °F /  15.9 °C 53.4 °F /  11.9 °C 30.08in /  1018.5hPa North 1.0mph /  1.6km/h 6.0mph /  9.7km/h 77% 0.00in /  0mm
15:30 60.5 °F /  15.8 °C 53.3 °F /  11.8 °C 30.08in /  1018.5hPa Calm   6.0mph /  9.7km/h 77% 0.00in /  0mm
15:35 60.7 °F /  15.9 °C 53.5 °F /  11.9 °C 30.08in /  1018.5hPa Calm   3.0mph /  4.8km/h 77% 0.00in /  0mm
15:40 60.6 °F /  15.9 °C 53.0 °F /  11.7 °C 30.08in /  1018.5hPa Calm     76% 0.00in /  0mm
15:50 60.6 °F /  15.9 °C 52.3 °F /  11.3 °C 30.08in /  1018.5hPa Calm     74% 0.00in /  0mm
15:55 60.6 °F /  15.9 °C 53.0 °F /  11.7 °C 30.08in /  1018.5hPa Calm     76% 0.00in /  0mm
16:00 60.3 °F /  15.7 °C 52.7 °F /  11.5 °C 30.08in /  1018.5hPa Calm   1.0mph /  1.6km/h 76% 0.00in /  0mm
16:05 59.9 °F /  15.5 °C 52.7 °F /  11.5 °C 30.08in /  1018.5hPa NNE 2.0mph /  3.2km/h 3.0mph /  4.8km/h 77% 0.00in /  0mm
16:10 59.7 °F /  15.4 °C 52.5 °F /  11.4 °C 30.08in /  1018.5hPa Calm   3.0mph /  4.8km/h 77% 0.00in /  0mm
16:15 59.4 °F /  15.2 °C 52.5 °F /  11.4 °C 30.08in /  1018.5hPa Calm   1.0mph /  1.6km/h 78% 0.00in /  0mm
16:20 59.0 °F /  15 °C 52.5 °F /  11.4 °C 30.08in /  1018.5hPa Calm   1.0mph /  1.6km/h 79% 0.00in /  0mm
16:25 59.0 °F /  15 °C 52.5 °F /  11.4 °C 30.08in /  1018.5hPa Calm   1.0mph /  1.6km/h 79% 0.00in /  0mm
16:30 58.9 °F /  14.9 °C 52.4 °F /  11.3 °C 30.08in /  1018.5hPa Calm   1.0mph /  1.6km/h 79% 0.00in /  0mm
16:35 58.9 °F /  14.9 °C 52.7 °F /  11.5 °C 30.08in /  1018.5hPa Calm   1.0mph /  1.6km/h 80% 0.00in /  0mm
16:40 58.9 °F /  14.9 °C 53.1 °F /  11.7 °C 30.08in /  1018.5hPa Calm     81% 0.00in /  0mm
16:45 58.9 °F /  14.9 °C 53.1 °F /  11.7 °C 30.08in /  1018.5hPa Calm     81% 0.00in /  0mm
16:50 58.7 °F /  14.8 °C 52.9 °F /  11.6 °C 30.08in /  1018.5hPa Calm     81% 0.00in /  0mm
17:00 58.8 °F /  14.9 °C 53.0 °F /  11.7 °C 30.08in /  1018.5hPa Calm   1.0mph /  1.6km/h 81% 0.00in /  0mm
17:05 58.7 °F /  14.8 °C 53.2 °F /  11.8 °C 30.08in /  1018.5hPa Calm   1.0mph /  1.6km/h 82% 0.00in /  0mm
17:10 58.6 °F /  14.8 °C 52.8 °F /  11.6 °C 30.08in /  1018.5hPa Calm     81% 0.00in /  0mm
17:14 58.4 °F /  14.7 °C 52.3 °F /  11.3 °C 30.08in /  1018.5hPa Calm   2.0mph /  3.2km/h 80% 0.00in /  0mm
17:20 58.5 °F /  14.7 °C 52.7 °F /  11.5 °C 30.08in /  1018.5hPa Calm   2.0mph /  3.2km/h 81% 0.00in /  0mm
17:25 58.5 °F /  14.7 °C 52.4 °F /  11.3 °C 30.08in /  1018.5hPa Calm   1.0mph /  1.6km/h 80% 0.00in /  0mm
17:30 58.6 °F /  14.8 °C 52.5 °F /  11.4 °C 30.08in /  1018.5hPa Calm   2.0mph /  3.2km/h 80% 0.00in /  0mm
17:35 58.7 °F /  14.8 °C 51.9 °F /  11.1 °C 30.08in /  1018.5hPa Calm   4.0mph /  6.4km/h 78% 0.00in /  0mm
17:45 59.0 °F /  15 °C 52.5 °F /  11.4 °C 30.08in /  1018.5hPa Calm     79% 0.00in /  0mm
17:50 59.0 °F /  15 °C 51.5 °F /  10.8 °C 30.08in /  1018.5hPa Calm   1.0mph /  1.6km/h 76% 0.00in /  0mm
17:55 59.0 °F /  15 °C 51.1 °F /  10.6 °C 30.08in /  1018.5hPa Calm   1.0mph /  1.6km/h 75% 0.00in /  0mm
18:05 59.2 °F /  15.1 °C 50.9 °F /  10.5 °C 30.07in /  1018.2hPa Calm   3.0mph /  4.8km/h 74% 0.00in /  0mm
18:10 59.5 °F /  15.3 °C 51.2 °F /  10.7 °C 30.07in /  1018.2hPa Calm     74% 0.00in /  0mm
18:15 59.7 °F /  15.4 °C 51.0 °F /  10.6 °C 30.07in /  1018.2hPa Calm     73% 0.00in /  0mm
18:19 59.8 °F /  15.4 °C 50.8 °F /  10.4 °C 30.07in /  1018.2hPa Calm     72% 0.00in /  0mm
18:25 60.1 °F /  15.6 °C 51.1 °F /  10.6 °C 30.07in /  1018.2hPa Calm     72% 0.00in /  0mm
18:30 60.6 °F /  15.9 °C 51.2 °F /  10.7 °C 30.07in /  1018.2hPa Calm     71% 0.00in /  0mm
18:35 60.9 °F /  16.1 °C 51.4 °F /  10.8 °C 30.07in /  1018.2hPa Calm     71% 0.00in /  0mm
18:44 60.8 °F /  16 °C 51.0 °F /  10.6 °C 30.08in /  1018.5hPa Calm     70% 0.00in /  0mm
18:50 60.7 °F /  15.9 °C 50.5 °F /  10.3 °C 30.08in /  1018.5hPa Calm     69% 0.00in /  0mm
18:55 60.0 °F /  15.6 °C 51.7 °F /  10.9 °C 30.08in /  1018.5hPa Calm     74% 0.00in /  0mm
19:00 59.4 °F /  15.2 °C 51.5 °F /  10.8 °C 30.08in /  1018.5hPa Calm     75% 0.00in /  0mm
19:05 59.0 °F /  15 °C 51.5 °F /  10.8 °C 30.08in /  1018.5hPa Calm     76% 0.00in /  0mm
19:09 58.9 °F /  14.9 °C 51.7 °F /  10.9 °C 30.08in /  1018.5hPa Calm     77% 0.00in /  0mm
19:15 58.7 °F /  14.8 °C 51.5 °F /  10.8 °C 30.08in /  1018.5hPa Calm     77% 0.00in /  0mm
19:20 58.7 °F /  14.8 °C 51.5 °F /  10.8 °C 30.08in /  1018.5hPa Calm     77% 0.00in /  0mm
19:30 59.0 °F /  15 °C 51.8 °F /  11 °C 30.09in /  1018.8hPa Calm     77% 0.00in /  0mm
19:35 59.0 °F /  15 °C 51.8 °F /  11 °C 30.09in /  1018.8hPa Calm     77% 0.00in /  0mm
19:40 59.4 °F /  15.2 °C 52.2 °F /  11.2 °C 30.08in /  1018.5hPa Calm     77% 0.00in /  0mm
19:45 59.4 °F /  15.2 °C 51.8 °F /  11 °C 30.09in /  1018.8hPa Calm     76% 0.00in /  0mm
19:50 59.0 °F /  15 °C 51.8 °F /  11 °C 30.08in /  1018.5hPa Calm     77% 0.00in /  0mm
20:00 58.3 °F /  14.6 °C 51.5 °F /  10.8 °C 30.08in /  1018.5hPa Calm   1.0mph /  1.6km/h 78% 0.00in /  0mm
20:05 57.8 °F /  14.3 °C 51.0 °F /  10.6 °C 30.08in /  1018.5hPa Calm   1.0mph /  1.6km/h 78% 0.00in /  0mm
20:10 57.2 °F /  14 °C 50.4 °F /  10.2 °C 30.08in /  1018.5hPa Calm   1.0mph /  1.6km/h 78% 0.00in /  0mm
20:14 56.7 °F /  13.7 °C 50.3 °F /  10.2 °C 30.08in /  1018.5hPa Calm   2.0mph /  3.2km/h 79% 0.00in /  0mm
20:20 56.2 °F /  13.4 °C 49.8 °F /  9.9 °C 30.08in /  1018.5hPa Calm   2.0mph /  3.2km/h 79% 0.00in /  0mm
20:25 55.7 °F /  13.2 °C 49.6 °F /  9.8 °C 30.08in /  1018.5hPa Calm     80% 0.00in /  0mm
20:35 54.4 °F /  12.4 °C 48.7 °F /  9.3 °C 30.08in /  1018.5hPa Calm     81% 0.00in /  0mm
20:40 53.8 °F /  12.1 °C 48.4 °F /  9.1 °C 30.09in /  1018.8hPa Calm     82% 0.00in /  0mm
20:45 53.7 °F /  12.1 °C 48.3 °F /  9.1 °C 30.09in /  1018.8hPa Calm     82% 0.00in /  0mm
20:49 53.4 °F /  11.9 °C 48.0 °F /  8.9 °C 30.09in /  1018.8hPa Calm     82% 0.00in /  0mm
20:55 53.1 °F /  11.7 °C 48.1 °F /  8.9 °C 30.09in /  1018.8hPa Calm     83% 0.00in /  0mm
21:00 52.7 °F /  11.5 °C 47.7 °F /  8.7 °C 30.09in /  1018.8hPa Calm     83% 0.00in /  0mm
21:05 52.2 °F /  11.2 °C 47.5 °F /  8.6 °C 30.09in /  1018.8hPa Calm     84% 0.00in /  0mm
21:10 52.3 °F /  11.3 °C 47.9 °F /  8.8 °C 30.09in /  1018.8hPa Calm     85% 0.00in /  0mm
21:15 52.4 °F /  11.3 °C 48.3 °F /  9.1 °C 30.09in /  1018.8hPa Calm     86% 0.00in /  0mm
21:20 52.6 °F /  11.4 °C 48.5 °F /  9.2 °C 30.09in /  1018.8hPa Calm     86% 0.00in /  0mm
21:25 52.7 °F /  11.5 °C 48.6 °F /  9.2 °C 30.09in /  1018.8hPa Calm     86% 0.00in /  0mm
21:30 52.6 °F /  11.4 °C 48.5 °F /  9.2 °C 30.09in /  1018.8hPa Calm     86% 0.00in /  0mm
21:35 52.7 °F /  11.5 °C 48.6 °F /  9.2 °C 30.09in /  1018.8hPa Calm     86% 0.00in /  0mm
21:40 52.9 °F /  11.6 °C 48.8 °F /  9.3 °C 30.09in /  1018.8hPa Calm     86% 0.00in /  0mm
21:44 53.2 °F /  11.8 °C 49.1 °F /  9.5 °C 30.09in /  1018.8hPa Calm     86% 0.00in /  0mm
21:50 53.2 °F /  11.8 °C 48.8 °F /  9.3 °C 30.09in /  1018.8hPa Calm     85% 0.00in /  0mm
21:55 53.2 °F /  11.8 °C 48.8 °F /  9.3 °C 30.09in /  1018.8hPa Calm     85% 0.00in /  0mm
22:00 52.9 °F /  11.6 °C 48.5 °F /  9.2 °C 30.09in /  1018.8hPa Calm     85% 0.00in /  0mm
22:04 52.6 °F /  11.4 °C 48.2 °F /  9 °C 30.09in /  1018.8hPa Calm     85% 0.00in /  0mm
22:10 52.5 °F /  11.4 °C 48.4 °F /  9.1 °C 30.09in /  1018.8hPa Calm     86% 0.00in /  0mm
22:15 52.3 °F /  11.3 °C 48.2 °F /  9 °C 30.09in /  1018.8hPa Calm     86% 0.00in /  0mm
22:20 52.1 °F /  11.2 °C 48.0 °F /  8.9 °C 30.09in /  1018.8hPa Calm     86% 0.00in /  0mm
22:25 51.9 °F /  11.1 °C 48.2 °F /  9 °C 30.09in /  1018.8hPa Calm     87% 0.00in /  0mm
22:30 51.9 °F /  11.1 °C 48.2 °F /  9 °C 30.09in /  1018.8hPa Calm     87% 0.00in /  0mm
22:35 51.9 °F /  11.1 °C 48.2 °F /  9 °C 30.09in /  1018.8hPa Calm   1.0mph /  1.6km/h 87% 0.00in /  0mm
22:40 51.9 °F /  11.1 °C 48.5 °F /  9.2 °C 30.09in /  1018.8hPa Calm   1.0mph /  1.6km/h 88% 0.00in /  0mm
22:50 51.3 °F /  10.7 °C 47.9 °F /  8.8 °C 30.09in /  1018.8hPa Calm     88% 0.00in /  0mm
22:59 51.2 °F /  10.7 °C 48.1 °F /  8.9 °C 30.08in /  1018.5hPa Calm     89% 0.00in /  0mm
23:04 51.2 °F /  10.7 °C 48.1 °F /  8.9 °C 30.09in /  1018.8hPa Calm     89% 0.00in /  0mm
23:10 51.0 °F /  10.6 °C 47.9 °F /  8.8 °C 30.09in /  1018.8hPa Calm     89% 0.00in /  0mm
23:15 50.8 °F /  10.4 °C 47.7 °F /  8.7 °C 30.08in /  1018.5hPa Calm     89% 0.00in /  0mm
23:20 50.7 °F /  10.4 °C 47.9 °F /  8.8 °C 30.08in /  1018.5hPa Calm     90% 0.00in /  0mm
23:25 50.9 °F /  10.5 °C 48.1 °F /  8.9 °C 30.08in /  1018.5hPa Calm     90% 0.00in /  0mm
23:30 50.9 °F /  10.5 °C 48.1 °F /  8.9 °C 30.08in /  1018.5hPa Calm     90% 0.00in /  0mm
23:40 50.4 °F /  10.2 °C 47.6 °F /  8.7 °C 30.09in /  1018.8hPa Calm     90% 0.00in /  0mm
23:45 50.0 °F /  10 °C 47.2 °F /  8.4 °C 30.09in /  1018.8hPa Calm     90% 0.00in /  0mm
23:50 50.1 °F /  10.1 °C 47.3 °F /  8.5 °C 30.09in /  1018.8hPa Calm     90% 0.00in /  0mm
23:55 50.0 °F /  10 °C 47.2 °F /  8.4 °C 30.09in /  1018.8hPa Calm     90% 0.00in /  0mm
23:59 50.2 °F /  10.1 °C 47.7 °F /  8.7 °C 30.09in /  1018.8hPa Calm     91% 0.00in /  0mm
Westford Weather
Compliments of Weather Underground

 
 
Current Radar Loop:

Copyright © WestfordWeather.net 2007-2014. All rights reserved.